sensor_id;sensor_type;location;lat;lon;timestamp;P1;durP1;ratioP1;P2;durP2;ratioP2
6392;SDS011;3229;42.674;23.282;2022-09-02T00:00:45;16.88;;;9.82;;
6392;SDS011;3229;42.674;23.282;2022-09-02T00:03:15;14.68;;;9.57;;
6392;SDS011;3229;42.674;23.282;2022-09-02T00:05:42;14.73;;;10.20;;
6392;SDS011;3229;42.674;23.282;2022-09-02T00:08:11;10.27;;;9.15;;
6392;SDS011;3229;42.674;23.282;2022-09-02T00:10:39;17.48;;;10.07;;
6392;SDS011;3229;42.674;23.282;2022-09-02T00:13:08;13.70;;;10.00;;
6392;SDS011;3229;42.674;23.282;2022-09-02T00:15:38;15.32;;;9.85;;
6392;SDS011;3229;42.674;23.282;2022-09-02T00:18:05;12.27;;;9.60;;
6392;SDS011;3229;42.674;23.282;2022-09-02T00:20:32;12.23;;;10.48;;
6392;SDS011;3229;42.674;23.282;2022-09-02T00:23:00;11.40;;;10.15;;
6392;SDS011;3229;42.674;23.282;2022-09-02T00:25:28;10.82;;;9.57;;
6392;SDS011;3229;42.674;23.282;2022-09-02T00:27:55;14.93;;;9.63;;
6392;SDS011;3229;42.674;23.282;2022-09-02T00:30:22;14.32;;;9.80;;
6392;SDS011;3229;42.674;23.282;2022-09-02T00:32:48;13.68;;;10.10;;
6392;SDS011;3229;42.674;23.282;2022-09-02T00:35:15;11.40;;;10.10;;
6392;SDS011;3229;42.674;23.282;2022-09-02T00:37:42;14.38;;;10.48;;
6392;SDS011;3229;42.674;23.282;2022-09-02T00:40:10;12.20;;;10.23;;
6392;SDS011;3229;42.674;23.282;2022-09-02T00:42:39;11.55;;;9.90;;
6392;SDS011;3229;42.674;23.282;2022-09-02T00:45:06;11.80;;;10.35;;
6392;SDS011;3229;42.674;23.282;2022-09-02T00:47:34;14.30;;;9.90;;
6392;SDS011;3229;42.674;23.282;2022-09-02T00:50:04;16.17;;;10.43;;
6392;SDS011;3229;42.674;23.282;2022-09-02T00:52:34;12.65;;;10.23;;
6392;SDS011;3229;42.674;23.282;2022-09-02T00:55:08;17.63;;;10.63;;
6392;SDS011;3229;42.674;23.282;2022-09-02T00:57:40;11.43;;;10.00;;
6392;SDS011;3229;42.674;23.282;2022-09-02T01:00:12;13.15;;;10.70;;
6392;SDS011;3229;42.674;23.282;2022-09-02T01:02:42;11.45;;;10.13;;
6392;SDS011;3229;42.674;23.282;2022-09-02T01:05:15;12.15;;;10.85;;
6392;SDS011;3229;42.674;23.282;2022-09-02T01:07:44;13.18;;;10.07;;
6392;SDS011;3229;42.674;23.282;2022-09-02T01:10:13;11.00;;;9.95;;
6392;SDS011;3229;42.674;23.282;2022-09-02T01:12:43;13.45;;;10.45;;
6392;SDS011;3229;42.674;23.282;2022-09-02T01:15:10;11.73;;;10.50;;
6392;SDS011;3229;42.674;23.282;2022-09-02T01:17:40;13.20;;;11.85;;
6392;SDS011;3229;42.674;23.282;2022-09-02T01:20:10;12.35;;;10.20;;
6392;SDS011;3229;42.674;23.282;2022-09-02T01:22:41;13.20;;;10.13;;
6392;SDS011;3229;42.674;23.282;2022-09-02T01:25:11;14.00;;;9.85;;
6392;SDS011;3229;42.674;23.282;2022-09-02T01:27:40;9.63;;;8.73;;
6392;SDS011;3229;42.674;23.282;2022-09-02T01:30:08;10.38;;;8.35;;
6392;SDS011;3229;42.674;23.282;2022-09-02T01:32:37;9.75;;;8.70;;
6392;SDS011;3229;42.674;23.282;2022-09-02T01:35:05;9.30;;;7.55;;
6392;SDS011;3229;42.674;23.282;2022-09-02T01:37:33;8.07;;;6.05;;
6392;SDS011;3229;42.674;23.282;2022-09-02T01:40:02;10.10;;;6.50;;
6392;SDS011;3229;42.674;23.282;2022-09-02T01:42:30;7.22;;;5.82;;
6392;SDS011;3229;42.674;23.282;2022-09-02T01:44:57;6.90;;;5.60;;
6392;SDS011;3229;42.674;23.282;2022-09-02T01:47:25;5.47;;;4.93;;
6392;SDS011;3229;42.674;23.282;2022-09-02T01:49:52;9.05;;;5.38;;
6392;SDS011;3229;42.674;23.282;2022-09-02T01:52:20;5.88;;;4.70;;
6392;SDS011;3229;42.674;23.282;2022-09-02T01:54:49;4.80;;;4.18;;
6392;SDS011;3229;42.674;23.282;2022-09-02T01:57:18;4.53;;;3.90;;
6392;SDS011;3229;42.674;23.282;2022-09-02T01:59:48;4.72;;;4.32;;
6392;SDS011;3229;42.674;23.282;2022-09-02T02:02:15;4.32;;;3.92;;
6392;SDS011;3229;42.674;23.282;2022-09-02T02:04:44;3.70;;;3.40;;
6392;SDS011;3229;42.674;23.282;2022-09-02T02:07:12;3.72;;;3.42;;
6392;SDS011;3229;42.674;23.282;2022-09-02T02:09:39;3.88;;;3.50;;
6392;SDS011;3229;42.674;23.282;2022-09-02T02:12:07;6.60;;;3.17;;
6392;SDS011;3229;42.674;23.282;2022-09-02T02:14:37;3.20;;;3.00;;
6392;SDS011;3229;42.674;23.282;2022-09-02T02:17:04;3.90;;;3.60;;
6392;SDS011;3229;42.674;23.282;2022-09-02T02:19:31;3.58;;;3.28;;
6392;SDS011;3229;42.674;23.282;2022-09-02T02:21:58;3.97;;;3.47;;
6392;SDS011;3229;42.674;23.282;2022-09-02T02:24:25;3.67;;;3.38;;
6392;SDS011;3229;42.674;23.282;2022-09-02T02:26:52;5.70;;;3.50;;
6392;SDS011;3229;42.674;23.282;2022-09-02T02:29:19;6.13;;;3.92;;
6392;SDS011;3229;42.674;23.282;2022-09-02T02:31:48;4.75;;;4.35;;
6392;SDS011;3229;42.674;23.282;2022-09-02T02:34:15;3.92;;;3.63;;
6392;SDS011;3229;42.674;23.282;2022-09-02T02:36:42;4.03;;;3.72;;
6392;SDS011;3229;42.674;23.282;2022-09-02T02:39:09;4.35;;;3.95;;
6392;SDS011;3229;42.674;23.282;2022-09-02T02:41:37;5.03;;;4.53;;
6392;SDS011;3229;42.674;23.282;2022-09-02T02:44:06;6.57;;;4.97;;
6392;SDS011;3229;42.674;23.282;2022-09-02T02:46:34;6.07;;;5.32;;
6392;SDS011;3229;42.674;23.282;2022-09-02T02:49:06;6.13;;;5.57;;
6392;SDS011;3229;42.674;23.282;2022-09-02T02:51:33;5.63;;;5.05;;
6392;SDS011;3229;42.674;23.282;2022-09-02T02:54:01;6.85;;;5.53;;
6392;SDS011;3229;42.674;23.282;2022-09-02T02:56:28;7.57;;;5.07;;
6392;SDS011;3229;42.674;23.282;2022-09-02T02:58:55;5.70;;;5.10;;
6392;SDS011;3229;42.674;23.282;2022-09-02T03:01:25;5.53;;;5.03;;
6392;SDS011;3229;42.674;23.282;2022-09-02T03:03:52;6.32;;;5.40;;
6392;SDS011;3229;42.674;23.282;2022-09-02T03:06:21;5.78;;;5.13;;
6392;SDS011;3229;42.674;23.282;2022-09-02T03:08:48;5.63;;;5.13;;
6392;SDS011;3229;42.674;23.282;2022-09-02T03:11:15;5.90;;;5.28;;
6392;SDS011;3229;42.674;23.282;2022-09-02T03:13:42;5.45;;;4.93;;
6392;SDS011;3229;42.674;23.282;2022-09-02T03:16:09;5.68;;;5.07;;
6392;SDS011;3229;42.674;23.282;2022-09-02T03:18:36;5.13;;;4.68;;
6392;SDS011;3229;42.674;23.282;2022-09-02T03:21:05;5.10;;;4.45;;
6392;SDS011;3229;42.674;23.282;2022-09-02T03:23:35;5.85;;;4.85;;
6392;SDS011;3229;42.674;23.282;2022-09-02T03:26:02;5.07;;;4.40;;
6392;SDS011;3229;42.674;23.282;2022-09-02T03:28:34;6.75;;;4.50;;
6392;SDS011;3229;42.674;23.282;2022-09-02T03:31:01;5.65;;;4.97;;
6392;SDS011;3229;42.674;23.282;2022-09-02T03:33:28;7.85;;;5.70;;
6392;SDS011;3229;42.674;23.282;2022-09-02T03:35:54;5.47;;;4.97;;
6392;SDS011;3229;42.674;23.282;2022-09-02T03:38:21;7.10;;;5.50;;
6392;SDS011;3229;42.674;23.282;2022-09-02T03:40:50;6.57;;;5.32;;
6392;SDS011;3229;42.674;23.282;2022-09-02T03:43:17;6.05;;;5.50;;
6392;SDS011;3229;42.674;23.282;2022-09-02T03:45:43;6.65;;;5.93;;
6392;SDS011;3229;42.674;23.282;2022-09-02T03:48:11;7.28;;;6.50;;
6392;SDS011;3229;42.674;23.282;2022-09-02T03:50:39;7.00;;;6.25;;
6392;SDS011;3229;42.674;23.282;2022-09-02T03:53:08;7.07;;;6.25;;
6392;SDS011;3229;42.674;23.282;2022-09-02T03:55:35;7.15;;;6.20;;
6392;SDS011;3229;42.674;23.282;2022-09-02T03:58:03;6.95;;;6.35;;
6392;SDS011;3229;42.674;23.282;2022-09-02T04:00:30;9.23;;;6.20;;
6392;SDS011;3229;42.674;23.282;2022-09-02T04:02:57;7.32;;;6.57;;
6392;SDS011;3229;42.674;23.282;2022-09-02T04:05:25;6.55;;;5.95;;
6392;SDS011;3229;42.674;23.282;2022-09-02T04:07:52;7.47;;;6.68;;
6392;SDS011;3229;42.674;23.282;2022-09-02T04:10:20;7.70;;;6.90;;
6392;SDS011;3229;42.674;23.282;2022-09-02T04:12:47;7.50;;;6.72;;
6392;SDS011;3229;42.674;23.282;2022-09-02T04:15:17;7.40;;;6.70;;
6392;SDS011;3229;42.674;23.282;2022-09-02T04:17:44;7.53;;;6.85;;
6392;SDS011;3229;42.674;23.282;2022-09-02T04:20:12;7.47;;;6.70;;
6392;SDS011;3229;42.674;23.282;2022-09-02T04:22:39;8.25;;;6.78;;
6392;SDS011;3229;42.674;23.282;2022-09-02T04:25:07;7.75;;;7.00;;
6392;SDS011;3229;42.674;23.282;2022-09-02T04:27:35;8.50;;;7.00;;
6392;SDS011;3229;42.674;23.282;2022-09-02T04:30:02;7.38;;;6.78;;
6392;SDS011;3229;42.674;23.282;2022-09-02T04:32:32;8.05;;;7.35;;
6392;SDS011;3229;42.674;23.282;2022-09-02T04:34:59;7.10;;;6.50;;
6392;SDS011;3229;42.674;23.282;2022-09-02T04:37:26;7.95;;;7.18;;
6392;SDS011;3229;42.674;23.282;2022-09-02T04:39:53;8.07;;;7.25;;
6392;SDS011;3229;42.674;23.282;2022-09-02T04:42:19;7.50;;;6.80;;
6392;SDS011;3229;42.674;23.282;2022-09-02T04:44:46;7.97;;;7.18;;
6392;SDS011;3229;42.674;23.282;2022-09-02T04:47:13;8.88;;;7.97;;
6392;SDS011;3229;42.674;23.282;2022-09-02T04:49:42;8.45;;;7.60;;
6392;SDS011;3229;42.674;23.282;2022-09-02T04:52:08;8.85;;;7.95;;
6392;SDS011;3229;42.674;23.282;2022-09-02T04:54:35;9.15;;;7.47;;
6392;SDS011;3229;42.674;23.282;2022-09-02T04:57:03;9.23;;;7.78;;
6392;SDS011;3229;42.674;23.282;2022-09-02T04:59:30;9.05;;;8.25;;
6392;SDS011;3229;42.674;23.282;2022-09-02T05:02:00;9.93;;;8.57;;
6392;SDS011;3229;42.674;23.282;2022-09-02T05:04:27;9.55;;;7.97;;
6392;SDS011;3229;42.674;23.282;2022-09-02T05:06:57;10.32;;;8.65;;
6392;SDS011;3229;42.674;23.282;2022-09-02T05:09:26;9.90;;;8.23;;
6392;SDS011;3229;42.674;23.282;2022-09-02T05:11:53;10.32;;;9.30;;
6392;SDS011;3229;42.674;23.282;2022-09-02T05:14:22;9.60;;;8.60;;
6392;SDS011;3229;42.674;23.282;2022-09-02T05:16:49;10.73;;;9.65;;
6392;SDS011;3229;42.674;23.282;2022-09-02T05:19:18;9.15;;;8.27;;
6392;SDS011;3229;42.674;23.282;2022-09-02T05:21:45;9.93;;;8.93;;
6392;SDS011;3229;42.674;23.282;2022-09-02T05:24:14;11.50;;;8.77;;
6392;SDS011;3229;42.674;23.282;2022-09-02T05:26:42;9.05;;;8.18;;
6392;SDS011;3229;42.674;23.282;2022-09-02T05:29:10;9.50;;;8.45;;
6392;SDS011;3229;42.674;23.282;2022-09-02T05:31:38;10.30;;;8.60;;
6392;SDS011;3229;42.674;23.282;2022-09-02T05:34:06;9.25;;;8.35;;
6392;SDS011;3229;42.674;23.282;2022-09-02T05:36:33;9.00;;;8.13;;
6392;SDS011;3229;42.674;23.282;2022-09-02T05:39:00;8.85;;;7.95;;
6392;SDS011;3229;42.674;23.282;2022-09-02T05:41:31;12.60;;;8.23;;
6392;SDS011;3229;42.674;23.282;2022-09-02T05:43:59;11.40;;;8.85;;
6392;SDS011;3229;42.674;23.282;2022-09-02T05:46:28;9.35;;;8.35;;
6392;SDS011;3229;42.674;23.282;2022-09-02T05:48:55;11.13;;;9.07;;
6392;SDS011;3229;42.674;23.282;2022-09-02T05:51:33;7.30;;;6.60;;
6392;SDS011;3229;42.674;23.282;2022-09-02T05:54:05;8.90;;;7.25;;
6392;SDS011;3229;42.674;23.282;2022-09-02T05:56:33;6.78;;;6.20;;
6392;SDS011;3229;42.674;23.282;2022-09-02T05:59:03;9.55;;;7.13;;
6392;SDS011;3229;42.674;23.282;2022-09-02T06:01:31;6.57;;;5.97;;
6392;SDS011;3229;42.674;23.282;2022-09-02T06:03:58;8.20;;;7.38;;
6392;SDS011;3229;42.674;23.282;2022-09-02T06:06:26;9.30;;;6.72;;
6392;SDS011;3229;42.674;23.282;2022-09-02T06:08:54;7.78;;;7.07;;
6392;SDS011;3229;42.674;23.282;2022-09-02T06:11:21;7.57;;;6.35;;
6392;SDS011;3229;42.674;23.282;2022-09-02T06:13:49;7.55;;;6.57;;
6392;SDS011;3229;42.674;23.282;2022-09-02T06:16:18;7.70;;;7.00;;
6392;SDS011;3229;42.674;23.282;2022-09-02T06:18:47;7.97;;;6.28;;
6392;SDS011;3229;42.674;23.282;2022-09-02T06:21:15;10.25;;;6.63;;
6392;SDS011;3229;42.674;23.282;2022-09-02T06:23:45;6.65;;;5.93;;
6392;SDS011;3229;42.674;23.282;2022-09-02T06:26:13;6.90;;;6.20;;
6392;SDS011;3229;42.674;23.282;2022-09-02T06:28:40;8.48;;;6.45;;
6392;SDS011;3229;42.674;23.282;2022-09-02T06:31:10;6.95;;;6.35;;
6392;SDS011;3229;42.674;23.282;2022-09-02T06:33:39;7.20;;;6.50;;
6392;SDS011;3229;42.674;23.282;2022-09-02T06:36:06;7.28;;;6.53;;
6392;SDS011;3229;42.674;23.282;2022-09-02T06:38:35;10.23;;;7.95;;
6392;SDS011;3229;42.674;23.282;2022-09-02T06:41:03;8.50;;;6.40;;
6392;SDS011;3229;42.674;23.282;2022-09-02T06:43:30;8.38;;;6.55;;
6392;SDS011;3229;42.674;23.282;2022-09-02T06:45:57;11.93;;;6.70;;
6392;SDS011;3229;42.674;23.282;2022-09-02T06:48:26;9.88;;;6.45;;
6392;SDS011;3229;42.674;23.282;2022-09-02T06:50:53;9.77;;;5.88;;
6392;SDS011;3229;42.674;23.282;2022-09-02T06:53:20;7.43;;;6.72;;
6392;SDS011;3229;42.674;23.282;2022-09-02T06:55:49;7.75;;;6.78;;
6392;SDS011;3229;42.674;23.282;2022-09-02T06:58:18;9.07;;;7.57;;
6392;SDS011;3229;42.674;23.282;2022-09-02T07:00:45;7.28;;;6.55;;
6392;SDS011;3229;42.674;23.282;2022-09-02T07:03:12;6.80;;;5.80;;
6392;SDS011;3229;42.674;23.282;2022-09-02T07:06:07;8.52;;;7.00;;
6392;SDS011;3229;42.674;23.282;2022-09-02T07:08:36;6.35;;;5.75;;
6392;SDS011;3229;42.674;23.282;2022-09-02T07:11:04;7.28;;;6.57;;
6392;SDS011;3229;42.674;23.282;2022-09-02T07:13:33;8.43;;;6.55;;
6392;SDS011;3229;42.674;23.282;2022-09-02T07:16:00;7.50;;;6.78;;
6392;SDS011;3229;42.674;23.282;2022-09-02T07:18:29;7.03;;;6.32;;
6392;SDS011;3229;42.674;23.282;2022-09-02T07:20:56;6.85;;;6.20;;
6392;SDS011;3229;42.674;23.282;2022-09-02T07:23:24;8.32;;;6.78;;
6392;SDS011;3229;42.674;23.282;2022-09-02T07:25:51;7.10;;;6.38;;
6392;SDS011;3229;42.674;23.282;2022-09-02T07:28:19;7.43;;;6.72;;
6392;SDS011;3229;42.674;23.282;2022-09-02T07:30:46;6.50;;;5.90;;
6392;SDS011;3229;42.674;23.282;2022-09-02T07:33:13;6.70;;;6.10;;
6392;SDS011;3229;42.674;23.282;2022-09-02T07:35:41;7.65;;;6.85;;
6392;SDS011;3229;42.674;23.282;2022-09-02T07:38:08;7.82;;;7.07;;
6392;SDS011;3229;42.674;23.282;2022-09-02T07:40:38;9.30;;;8.38;;
6392;SDS011;3229;42.674;23.282;2022-09-02T07:43:06;6.82;;;5.93;;
6392;SDS011;3229;42.674;23.282;2022-09-02T07:45:36;6.88;;;6.28;;
6392;SDS011;3229;42.674;23.282;2022-09-02T07:48:03;7.47;;;6.75;;
6392;SDS011;3229;42.674;23.282;2022-09-02T07:50:31;8.52;;;6.25;;
6392;SDS011;3229;42.674;23.282;2022-09-02T07:52:59;8.07;;;6.53;;
6392;SDS011;3229;42.674;23.282;2022-09-02T07:55:26;8.98;;;5.78;;
6392;SDS011;3229;42.674;23.282;2022-09-02T07:57:56;7.97;;;6.05;;
6392;SDS011;3229;42.674;23.282;2022-09-02T08:00:24;10.07;;;6.05;;
6392;SDS011;3229;42.674;23.282;2022-09-02T08:02:52;6.43;;;5.85;;
6392;SDS011;3229;42.674;23.282;2022-09-02T08:05:19;9.10;;;6.00;;
6392;SDS011;3229;42.674;23.282;2022-09-02T08:07:46;8.05;;;5.93;;
6392;SDS011;3229;42.674;23.282;2022-09-02T08:10:14;7.75;;;6.35;;
6392;SDS011;3229;42.674;23.282;2022-09-02T08:12:42;6.03;;;5.03;;
6392;SDS011;3229;42.674;23.282;2022-09-02T08:15:12;6.50;;;5.78;;
6392;SDS011;3229;42.674;23.282;2022-09-02T08:17:40;8.13;;;6.70;;
6392;SDS011;3229;42.674;23.282;2022-09-02T08:20:07;6.47;;;5.88;;
6392;SDS011;3229;42.674;23.282;2022-09-02T08:22:36;6.20;;;5.40;;
6392;SDS011;3229;42.674;23.282;2022-09-02T08:25:03;8.02;;;6.05;;
6392;SDS011;3229;42.674;23.282;2022-09-02T08:27:31;7.07;;;6.38;;
6392;SDS011;3229;42.674;23.282;2022-09-02T08:29:58;6.28;;;5.53;;
6392;SDS011;3229;42.674;23.282;2022-09-02T08:32:27;6.55;;;5.25;;
6392;SDS011;3229;42.674;23.282;2022-09-02T08:34:57;6.53;;;5.28;;
6392;SDS011;3229;42.674;23.282;2022-09-02T08:37:26;7.13;;;6.53;;
6392;SDS011;3229;42.674;23.282;2022-09-02T08:39:55;7.32;;;6.10;;
6392;SDS011;3229;42.674;23.282;2022-09-02T08:42:23;7.43;;;5.82;;
6392;SDS011;3229;42.674;23.282;2022-09-02T08:44:57;6.80;;;6.13;;
6392;SDS011;3229;42.674;23.282;2022-09-02T08:47:30;6.88;;;5.40;;
6392;SDS011;3229;42.674;23.282;2022-09-02T08:49:58;6.90;;;5.85;;
6392;SDS011;3229;42.674;23.282;2022-09-02T08:52:30;7.18;;;6.35;;
6392;SDS011;3229;42.674;23.282;2022-09-02T08:55:01;6.95;;;6.28;;
6392;SDS011;3229;42.674;23.282;2022-09-02T08:57:28;6.38;;;5.78;;
6392;SDS011;3229;42.674;23.282;2022-09-02T08:59:57;8.15;;;5.78;;
6392;SDS011;3229;42.674;23.282;2022-09-02T09:02:28;10.18;;;6.25;;
6392;SDS011;3229;42.674;23.282;2022-09-02T09:05:17;6.35;;;5.85;;
6392;SDS011;3229;42.674;23.282;2022-09-02T09:07:58;6.25;;;5.70;;
6392;SDS011;3229;42.674;23.282;2022-09-02T09:10:35;10.10;;;6.65;;
6392;SDS011;3229;42.674;23.282;2022-09-02T09:13:13;9.68;;;6.55;;
6392;SDS011;3229;42.674;23.282;2022-09-02T09:16:06;7.25;;;6.55;;
6392;SDS011;3229;42.674;23.282;2022-09-02T09:18:45;8.57;;;6.65;;
6392;SDS011;3229;42.674;23.282;2022-09-02T09:21:19;6.93;;;6.22;;
6392;SDS011;3229;42.674;23.282;2022-09-02T09:23:48;8.05;;;7.10;;
6392;SDS011;3229;42.674;23.282;2022-09-02T09:26:19;10.05;;;7.10;;
6392;SDS011;3229;42.674;23.282;2022-09-02T09:28:52;8.80;;;6.13;;
6392;SDS011;3229;42.674;23.282;2022-09-02T09:31:25;8.48;;;7.43;;
6392;SDS011;3229;42.674;23.282;2022-09-02T09:34:00;7.20;;;6.50;;
6392;SDS011;3229;42.674;23.282;2022-09-02T09:39:23;11.02;;;7.50;;
6392;SDS011;3229;42.674;23.282;2022-09-02T09:41:53;8.40;;;7.07;;
6392;SDS011;3229;42.674;23.282;2022-09-02T09:44:33;8.13;;;7.32;;
6392;SDS011;3229;42.674;23.282;2022-09-02T09:47:03;8.38;;;7.28;;
6392;SDS011;3229;42.674;23.282;2022-09-02T09:49:34;8.70;;;7.80;;
6392;SDS011;3229;42.674;23.282;2022-09-02T09:52:01;7.88;;;7.07;;
6392;SDS011;3229;42.674;23.282;2022-09-02T09:54:29;10.48;;;8.63;;
6392;SDS011;3229;42.674;23.282;2022-09-02T09:56:56;8.68;;;7.85;;
6392;SDS011;3229;42.674;23.282;2022-09-02T09:59:41;9.45;;;7.80;;
6392;SDS011;3229;42.674;23.282;2022-09-02T10:02:21;8.18;;;7.25;;
6392;SDS011;3229;42.674;23.282;2022-09-02T10:04:53;9.45;;;7.90;;
6392;SDS011;3229;42.674;23.282;2022-09-02T10:07:35;10.05;;;7.22;;
6392;SDS011;3229;42.674;23.282;2022-09-02T10:10:16;9.10;;;7.63;;
6392;SDS011;3229;42.674;23.282;2022-09-02T10:12:44;8.68;;;7.13;;
6392;SDS011;3229;42.674;23.282;2022-09-02T10:15:13;8.45;;;7.60;;
6392;SDS011;3229;42.674;23.282;2022-09-02T10:17:43;8.73;;;7.45;;
6392;SDS011;3229;42.674;23.282;2022-09-02T10:20:24;9.60;;;7.85;;
6392;SDS011;3229;42.674;23.282;2022-09-02T10:23:11;10.18;;;8.63;;
6392;SDS011;3229;42.674;23.282;2022-09-02T10:25:53;9.93;;;8.45;;
6392;SDS011;3229;42.674;23.282;2022-09-02T10:28:32;10.85;;;8.85;;
6392;SDS011;3229;42.674;23.282;2022-09-02T10:31:10;9.68;;;8.55;;
6392;SDS011;3229;42.674;23.282;2022-09-02T10:33:51;12.73;;;8.07;;
6392;SDS011;3229;42.674;23.282;2022-09-02T10:36:36;12.23;;;9.93;;
6392;SDS011;3229;42.674;23.282;2022-09-02T10:39:17;11.05;;;9.27;;
6392;SDS011;3229;42.674;23.282;2022-09-02T10:41:51;11.65;;;9.20;;
6392;SDS011;3229;42.674;23.282;2022-09-02T10:44:29;9.98;;;8.88;;
6392;SDS011;3229;42.674;23.282;2022-09-02T10:47:01;13.27;;;8.30;;
6392;SDS011;3229;42.674;23.282;2022-09-02T10:49:37;11.93;;;8.68;;
6392;SDS011;3229;42.674;23.282;2022-09-02T10:52:26;9.88;;;8.88;;
6392;SDS011;3229;42.674;23.282;2022-09-02T10:55:06;10.15;;;8.75;;
6392;SDS011;3229;42.674;23.282;2022-09-02T10:57:43;10.32;;;9.20;;
6392;SDS011;3229;42.674;23.282;2022-09-02T11:00:15;10.30;;;8.75;;
6392;SDS011;3229;42.674;23.282;2022-09-02T11:02:45;11.60;;;10.13;;
6392;SDS011;3229;42.674;23.282;2022-09-02T11:05:17;10.45;;;9.55;;
6392;SDS011;3229;42.674;23.282;2022-09-02T11:07:50;15.57;;;9.80;;
6392;SDS011;3229;42.674;23.282;2022-09-02T11:10:21;10.13;;;9.05;;
6392;SDS011;3229;42.674;23.282;2022-09-02T11:12:54;11.55;;;10.05;;
6392;SDS011;3229;42.674;23.282;2022-09-02T11:15:26;10.05;;;9.05;;
6392;SDS011;3229;42.674;23.282;2022-09-02T11:18:07;12.15;;;10.82;;
6392;SDS011;3229;42.674;23.282;2022-09-02T11:20:40;12.82;;;9.68;;
6392;SDS011;3229;42.674;23.282;2022-09-02T11:23:14;13.60;;;10.10;;
6392;SDS011;3229;42.674;23.282;2022-09-02T11:25:48;10.70;;;9.52;;
6392;SDS011;3229;42.674;23.282;2022-09-02T11:28:24;10.63;;;9.52;;
6392;SDS011;3229;42.674;23.282;2022-09-02T11:30:59;11.95;;;10.18;;
6392;SDS011;3229;42.674;23.282;2022-09-02T11:33:34;13.77;;;10.38;;
6392;SDS011;3229;42.674;23.282;2022-09-02T11:36:12;10.95;;;9.75;;
6392;SDS011;3229;42.674;23.282;2022-09-02T11:38:41;11.57;;;10.07;;
6392;SDS011;3229;42.674;23.282;2022-09-02T11:41:20;11.15;;;9.82;;
6392;SDS011;3229;42.674;23.282;2022-09-02T11:43:57;15.15;;;10.02;;
6392;SDS011;3229;42.674;23.282;2022-09-02T11:46:34;10.85;;;9.85;;
6392;SDS011;3229;42.674;23.282;2022-09-02T11:52:20;12.82;;;11.15;;
6392;SDS011;3229;42.674;23.282;2022-09-02T11:55:02;12.93;;;10.43;;
6392;SDS011;3229;42.674;23.282;2022-09-02T11:57:34;12.25;;;11.05;;
6392;SDS011;3229;42.674;23.282;2022-09-02T12:00:06;15.13;;;10.70;;
6392;SDS011;3229;42.674;23.282;2022-09-02T12:02:39;11.52;;;10.20;;
6392;SDS011;3229;42.674;23.282;2022-09-02T12:11:46;12.13;;;11.00;;
6392;SDS011;3229;42.674;23.282;2022-09-02T12:17:33;17.98;;;11.63;;
6392;SDS011;3229;42.674;23.282;2022-09-02T12:20:03;12.55;;;11.35;;
6392;SDS011;3229;42.674;23.282;2022-09-02T12:22:35;13.60;;;11.70;;
6392;SDS011;3229;42.674;23.282;2022-09-02T12:25:04;16.98;;;11.05;;
6392;SDS011;3229;42.674;23.282;2022-09-02T12:28:21;15.60;;;11.02;;
6392;SDS011;3229;42.674;23.282;2022-09-02T12:31:10;14.25;;;11.32;;
6392;SDS011;3229;42.674;23.282;2022-09-02T12:33:40;11.98;;;10.35;;
6392;SDS011;3229;42.674;23.282;2022-09-02T12:36:09;12.95;;;11.55;;
6392;SDS011;3229;42.674;23.282;2022-09-02T12:42:18;13.57;;;10.98;;
6392;SDS011;3229;42.674;23.282;2022-09-02T12:44:53;13.82;;;10.70;;
6392;SDS011;3229;42.674;23.282;2022-09-02T12:47:29;11.98;;;10.43;;
6392;SDS011;3229;42.674;23.282;2022-09-02T12:50:07;13.70;;;10.70;;
6392;SDS011;3229;42.674;23.282;2022-09-02T12:52:45;11.20;;;10.13;;
6392;SDS011;3229;42.674;23.282;2022-09-02T12:55:21;13.98;;;10.70;;
6392;SDS011;3229;42.674;23.282;2022-09-02T12:57:51;14.13;;;11.40;;
6392;SDS011;3229;42.674;23.282;2022-09-02T13:00:27;13.45;;;11.32;;
6392;SDS011;3229;42.674;23.282;2022-09-02T13:03:08;11.95;;;10.73;;
6392;SDS011;3229;42.674;23.282;2022-09-02T13:05:52;12.77;;;11.15;;
6392;SDS011;3229;42.674;23.282;2022-09-02T13:14:37;12.20;;;11.00;;
6392;SDS011;3229;42.674;23.282;2022-09-02T13:17:25;14.23;;;12.60;;
6392;SDS011;3229;42.674;23.282;2022-09-02T13:23:17;15.10;;;12.40;;
6392;SDS011;3229;42.674;23.282;2022-09-02T13:26:16;13.98;;;12.60;;
6392;SDS011;3229;42.674;23.282;2022-09-02T13:29:00;12.77;;;11.05;;
6392;SDS011;3229;42.674;23.282;2022-09-02T13:31:40;13.73;;;12.13;;
6392;SDS011;3229;42.674;23.282;2022-09-02T13:34:10;14.80;;;13.23;;
6392;SDS011;3229;42.674;23.282;2022-09-02T13:36:40;14.90;;;13.35;;
6392;SDS011;3229;42.674;23.282;2022-09-02T13:39:09;22.33;;;14.93;;
6392;SDS011;3229;42.674;23.282;2022-09-02T13:41:38;18.42;;;15.52;;
6392;SDS011;3229;42.674;23.282;2022-09-02T13:44:06;18.20;;;15.65;;
6392;SDS011;3229;42.674;23.282;2022-09-02T13:46:44;18.48;;;16.20;;
6392;SDS011;3229;42.674;23.282;2022-09-02T13:49:24;17.95;;;14.65;;
6392;SDS011;3229;42.674;23.282;2022-09-02T13:51:53;17.38;;;15.45;;
6392;SDS011;3229;42.674;23.282;2022-09-02T13:54:23;21.48;;;16.77;;
6392;SDS011;3229;42.674;23.282;2022-09-02T13:56:55;17.88;;;14.65;;
6392;SDS011;3229;42.674;23.282;2022-09-02T13:59:33;18.65;;;16.13;;
6392;SDS011;3229;42.674;23.282;2022-09-02T14:02:21;19.02;;;16.90;;
6392;SDS011;3229;42.674;23.282;2022-09-02T14:04:53;21.95;;;17.05;;
6392;SDS011;3229;42.674;23.282;2022-09-02T14:07:25;24.17;;;16.63;;
6392;SDS011;3229;42.674;23.282;2022-09-02T14:09:57;22.40;;;17.58;;
6392;SDS011;3229;42.674;23.282;2022-09-02T14:12:26;24.42;;;19.17;;
6392;SDS011;3229;42.674;23.282;2022-09-02T14:14:56;23.95;;;17.90;;
6392;SDS011;3229;42.674;23.282;2022-09-02T14:17:25;30.63;;;17.48;;
6392;SDS011;3229;42.674;23.282;2022-09-02T14:22:41;26.73;;;20.73;;
6392;SDS011;3229;42.674;23.282;2022-09-02T14:25:11;27.50;;;18.95;;
6392;SDS011;3229;42.674;23.282;2022-09-02T14:27:39;20.98;;;18.58;;
6392;SDS011;3229;42.674;23.282;2022-09-02T14:30:22;21.40;;;16.38;;
6392;SDS011;3229;42.674;23.282;2022-09-02T14:35:53;23.55;;;18.30;;
6392;SDS011;3229;42.674;23.282;2022-09-02T14:38:21;20.20;;;18.08;;
6392;SDS011;3229;42.674;23.282;2022-09-02T14:40:49;23.65;;;17.90;;
6392;SDS011;3229;42.674;23.282;2022-09-02T14:43:24;19.73;;;17.35;;
6392;SDS011;3229;42.674;23.282;2022-09-02T14:46:02;21.27;;;17.63;;
6392;SDS011;3229;42.674;23.282;2022-09-02T14:48:33;18.73;;;16.75;;
6392;SDS011;3229;42.674;23.282;2022-09-02T14:51:05;19.25;;;17.23;;
6392;SDS011;3229;42.674;23.282;2022-09-02T14:53:33;17.52;;;15.52;;
6392;SDS011;3229;42.674;23.282;2022-09-02T14:56:02;18.02;;;16.05;;
6392;SDS011;3229;42.674;23.282;2022-09-02T14:58:29;16.65;;;14.82;;
6392;SDS011;3229;42.674;23.282;2022-09-02T15:00:57;18.52;;;16.05;;
6392;SDS011;3229;42.674;23.282;2022-09-02T15:03:25;18.45;;;16.23;;
6392;SDS011;3229;42.674;23.282;2022-09-02T15:05:53;20.45;;;16.98;;
6392;SDS011;3229;42.674;23.282;2022-09-02T15:08:21;18.15;;;16.23;;
6392;SDS011;3229;42.674;23.282;2022-09-02T15:10:48;18.75;;;16.65;;
6392;SDS011;3229;42.674;23.282;2022-09-02T15:13:19;18.20;;;16.30;;
6392;SDS011;3229;42.674;23.282;2022-09-02T15:15:51;17.90;;;15.98;;
6392;SDS011;3229;42.674;23.282;2022-09-02T15:18:19;19.85;;;16.45;;
6392;SDS011;3229;42.674;23.282;2022-09-02T15:20:47;21.13;;;16.48;;
6392;SDS011;3229;42.674;23.282;2022-09-02T15:23:14;18.63;;;16.63;;
6392;SDS011;3229;42.674;23.282;2022-09-02T15:25:43;18.88;;;16.83;;
6392;SDS011;3229;42.674;23.282;2022-09-02T15:28:10;17.40;;;15.02;;
6392;SDS011;3229;42.674;23.282;2022-09-02T15:30:39;17.75;;;15.85;;
6392;SDS011;3229;42.674;23.282;2022-09-02T15:33:06;19.17;;;15.43;;
6392;SDS011;3229;42.674;23.282;2022-09-02T15:35:34;19.35;;;15.18;;
6392;SDS011;3229;42.674;23.282;2022-09-02T15:38:01;18.35;;;16.40;;
6392;SDS011;3229;42.674;23.282;2022-09-02T15:40:29;22.33;;;15.98;;
6392;SDS011;3229;42.674;23.282;2022-09-02T15:42:58;18.13;;;16.25;;
6392;SDS011;3229;42.674;23.282;2022-09-02T15:45:25;21.73;;;16.38;;